createdAt,value
2022-10-05T00:02:16.149Z,100.00
2022-10-05T00:04:44.661Z,100.00
2022-10-05T00:07:16.229Z,100.00
2022-10-05T00:09:49.171Z,100.00
2022-10-05T00:12:19.314Z,100.00
2022-10-05T00:14:49.644Z,100.00
2022-10-05T00:17:21.046Z,100.00
2022-10-05T00:19:52.194Z,100.00
2022-10-05T00:22:23.736Z,100.00
2022-10-05T00:24:59.882Z,100.00
2022-10-05T00:27:33.868Z,100.00
2022-10-05T00:30:08.863Z,100.00
2022-10-05T00:32:37.261Z,100.00
2022-10-05T00:35:06.358Z,100.00
2022-10-05T00:37:34.889Z,100.00
2022-10-05T00:40:11.599Z,100.00
2022-10-05T00:42:49.919Z,100.00
2022-10-05T00:45:27.234Z,100.00
2022-10-05T00:48:04.916Z,100.00
2022-10-05T00:50:49.381Z,100.00
2022-10-05T00:53:31.929Z,100.00
2022-10-05T00:56:08.328Z,100.00
2022-10-05T00:58:53.833Z,100.00
2022-10-05T01:01:32.548Z,100.00
2022-10-05T01:04:06.938Z,100.00
2022-10-05T01:06:46.794Z,100.00
2022-10-05T01:09:23.391Z,100.00
2022-10-05T01:11:57.366Z,100.00
2022-10-05T01:14:33.993Z,100.00
2022-10-05T01:17:09.035Z,100.00
2022-10-05T01:20:11.119Z,100.00
2022-10-05T01:22:58.857Z,100.00
2022-10-05T01:25:32.710Z,100.00
2022-10-05T01:28:07.581Z,100.00
2022-10-05T01:30:43.003Z,100.00
2022-10-05T01:33:20.098Z,100.00
2022-10-05T01:35:56.923Z,100.00
2022-10-05T01:38:46.131Z,100.00
2022-10-05T01:41:28.126Z,100.00
2022-10-05T01:44:04.141Z,100.00
2022-10-05T01:46:39.383Z,100.00
2022-10-05T01:49:21.088Z,100.00
2022-10-05T01:52:02.188Z,100.00
2022-10-05T01:54:40.659Z,100.00
2022-10-05T01:57:20.813Z,100.00
2022-10-05T02:00:03.342Z,100.00
2022-10-05T02:02:46.992Z,100.00
2022-10-05T02:05:22.117Z,100.00
2022-10-05T02:07:55.554Z,100.00
2022-10-05T02:10:28.179Z,100.00
2022-10-05T02:13:01.824Z,100.00
2022-10-05T02:15:41.557Z,100.00
2022-10-05T02:18:14.392Z,100.00
2022-10-05T02:20:44.753Z,100.00
2022-10-05T02:23:18.888Z,100.00
2022-10-05T02:25:50.621Z,100.00
2022-10-05T02:28:24.567Z,100.00
2022-10-05T02:30:59.592Z,100.00
2022-10-05T02:33:29.670Z,100.00
2022-10-05T02:36:03.325Z,100.00
2022-10-05T02:38:40.845Z,100.00
2022-10-05T02:41:19.527Z,100.00
2022-10-05T02:43:58.363Z,100.00
2022-10-05T02:46:36.726Z,100.00
2022-10-05T02:49:20.078Z,100.00
2022-10-05T02:51:55.548Z,100.00
2022-10-05T02:54:40.053Z,100.00
2022-10-05T02:57:17.333Z,100.00
2022-10-05T02:59:53.998Z,100.00
2022-10-05T03:02:27.688Z,100.00
2022-10-05T03:05:03.692Z,100.00
2022-10-05T03:07:40.552Z,100.00
2022-10-05T03:10:15.826Z,100.00
2022-10-05T03:12:53.031Z,100.00
2022-10-05T03:16:05.220Z,100.00
2022-10-05T03:18:48.946Z,100.00
2022-10-05T03:21:33.498Z,100.00
2022-10-05T03:24:21.931Z,100.00
2022-10-05T03:27:01.893Z,100.00
2022-10-05T03:29:40.394Z,100.00
2022-10-05T03:32:18.744Z,100.00
2022-10-05T03:34:54.429Z,100.00
2022-10-05T03:37:29.087Z,100.00
2022-10-05T03:40:04.225Z,100.00
2022-10-05T03:42:40.743Z,100.00
2022-10-05T03:45:19.886Z,100.00
2022-10-05T03:48:01.117Z,100.00
2022-10-05T03:50:43.180Z,100.00
2022-10-05T03:53:18.445Z,100.00
2022-10-05T03:55:52.918Z,100.00
2022-10-05T03:58:26.735Z,100.00
2022-10-05T04:01:00.921Z,100.00
2022-10-05T04:03:35.105Z,100.00
2022-10-05T04:06:11.206Z,100.00
2022-10-05T04:08:48.380Z,100.00
2022-10-05T04:11:26.378Z,100.00
2022-10-05T04:14:00.399Z,100.00
2022-10-05T04:16:33.130Z,100.00
2022-10-05T04:19:06.685Z,100.00
2022-10-05T04:21:41.518Z,100.00
2022-10-05T04:24:15.696Z,100.00
2022-10-05T04:26:51.792Z,100.00
2022-10-05T04:29:32.389Z,100.00
2022-10-05T04:32:26.885Z,100.00
2022-10-05T04:35:09.204Z,100.00
2022-10-05T04:37:51.498Z,100.00
2022-10-05T04:40:37.067Z,100.00
2022-10-05T04:43:16.189Z,100.00
2022-10-05T04:46:09.844Z,100.00
2022-10-05T04:49:03.399Z,100.00
2022-10-05T04:51:41.279Z,100.00
2022-10-05T04:54:23.882Z,100.00
2022-10-05T04:56:59.454Z,100.00
2022-10-05T04:59:48.430Z,100.00
2022-10-05T05:02:24.300Z,100.00
2022-10-05T05:05:15.624Z,100.00
2022-10-05T05:07:50.406Z,100.00
2022-10-05T05:10:47.486Z,100.00
2022-10-05T05:13:37.202Z,100.00
2022-10-05T05:16:11.456Z,100.00
2022-10-05T05:18:58.762Z,100.00
2022-10-05T05:21:40.088Z,100.00
2022-10-05T05:24:20.896Z,100.00
2022-10-05T05:27:05.101Z,100.00
2022-10-05T05:29:44.683Z,100.00
2022-10-05T05:32:23.984Z,100.00
2022-10-05T05:35:14.352Z,100.00
2022-10-05T05:37:52.195Z,100.00
2022-10-05T05:40:27.504Z,100.00
2022-10-05T05:43:00.561Z,100.00
2022-10-05T05:45:40.662Z,100.00
2022-10-05T05:48:17.769Z,100.00
2022-10-05T05:50:56.237Z,100.00
2022-10-05T05:53:30.760Z,100.00
2022-10-05T05:56:05.168Z,100.00
2022-10-05T05:58:39.843Z,100.00
2022-10-05T06:01:31.789Z,100.00
2022-10-05T06:04:06.162Z,100.00
2022-10-05T06:06:39.995Z,100.00
2022-10-05T06:09:19.015Z,100.00
2022-10-05T06:12:11.965Z,100.00
2022-10-05T06:14:48.514Z,100.00
2022-10-05T06:17:20.639Z,100.00
2022-10-05T06:19:54.790Z,100.00
2022-10-05T06:22:27.813Z,100.00
2022-10-05T06:25:16.045Z,100.00
2022-10-05T06:28:02.929Z,100.00
2022-10-05T06:30:45.017Z,100.00
2022-10-05T06:33:24.329Z,100.00
2022-10-05T06:36:07.879Z,100.00
2022-10-05T06:38:59.618Z,100.00
2022-10-05T06:41:38.746Z,100.00
2022-10-05T06:44:13.598Z,100.00
2022-10-05T06:47:05.455Z,100.00
2022-10-05T06:49:59.879Z,100.00
2022-10-05T06:52:58.713Z,100.00
2022-10-05T06:55:37.894Z,100.00
2022-10-05T06:58:20.203Z,100.00
2022-10-05T07:00:53.629Z,100.00
2022-10-05T07:03:32.023Z,100.00
2022-10-05T07:06:11.770Z,100.00
2022-10-05T07:09:02.249Z,100.00
2022-10-05T07:11:58.354Z,100.00
2022-10-05T07:14:44.289Z,100.00
2022-10-05T07:17:26.433Z,100.00
2022-10-05T07:20:06.237Z,100.00
2022-10-05T07:23:11.207Z,100.00
2022-10-05T07:25:47.239Z,100.00
2022-10-05T07:28:24.852Z,100.00
2022-10-05T07:30:57.382Z,100.00
2022-10-05T07:33:33.470Z,100.00
2022-10-05T07:36:28.684Z,100.00
2022-10-05T07:39:03.826Z,100.00
2022-10-05T07:41:38.402Z,100.00
2022-10-05T07:44:14.055Z,100.00
2022-10-05T07:46:54.449Z,100.00
2022-10-05T07:49:33.872Z,100.00
2022-10-05T07:52:12.164Z,100.00
2022-10-05T07:54:48.557Z,100.00
2022-10-05T07:57:25.150Z,100.00
2022-10-05T07:59:59.185Z,100.00
2022-10-05T08:02:33.202Z,100.00
2022-10-05T08:05:05.130Z,100.00
2022-10-05T08:07:36.964Z,100.00
2022-10-05T08:10:19.726Z,100.00
2022-10-05T08:13:01.209Z,100.00
2022-10-05T08:15:35.226Z,100.00
2022-10-05T08:18:10.452Z,100.00
2022-10-05T08:20:47.017Z,99.71
2022-10-05T08:23:25.823Z,100.00
2022-10-05T08:26:03.633Z,100.00
2022-10-05T08:28:39.669Z,99.62
2022-10-05T08:31:17.112Z,98.84
2022-10-05T08:33:58.629Z,97.19
2022-10-05T08:36:44.772Z,97.09
2022-10-05T08:39:19.814Z,94.56
2022-10-05T08:42:29.734Z,92.78
2022-10-05T08:45:20.394Z,91.63
2022-10-05T08:48:16.021Z,88.00
2022-10-05T08:51:05.671Z,87.43
2022-10-05T08:53:58.525Z,87.08
2022-10-05T08:56:38.979Z,84.85
2022-10-05T08:59:28.650Z,85.18
2022-10-05T09:02:29.223Z,83.20
2022-10-05T09:05:24.523Z,81.63
2022-10-05T09:08:24.077Z,79.46
2022-10-05T09:11:03.711Z,77.79
2022-10-05T09:14:29.115Z,77.45
2022-10-05T09:17:28.213Z,75.71
2022-10-05T09:20:11.299Z,73.85
2022-10-05T09:22:59.671Z,72.54
2022-10-05T09:25:57.208Z,71.05
2022-10-05T09:28:32.067Z,70.88
2022-10-05T09:31:26.213Z,72.17
2022-10-05T09:34:40.164Z,71.64
2022-10-05T09:37:47.450Z,72.29
2022-10-05T09:40:52.643Z,68.59
2022-10-05T09:43:54.116Z,69.84
2022-10-05T09:46:56.553Z,68.41
2022-10-05T09:50:05.381Z,64.28
2022-10-05T09:52:54.618Z,64.28
2022-10-05T09:56:09.385Z,63.24
2022-10-05T09:59:06.236Z,58.61
2022-10-05T10:01:49.120Z,57.71
2022-10-05T10:04:33.851Z,57.52
2022-10-05T10:07:39.442Z,56.28
2022-10-05T10:10:32.366Z,56.88
2022-10-05T10:13:23.049Z,54.23
2022-10-05T10:16:23.501Z,53.03
2022-10-05T10:19:20.867Z,50.64
2022-10-05T10:22:31.277Z,50.76
2022-10-05T10:25:19.155Z,52.01
2022-10-05T10:28:07.759Z,50.95
2022-10-05T10:31:07.006Z,51.35
2022-10-05T10:34:03.033Z,49.00
2022-10-05T10:37:07.751Z,49.11
2022-10-05T10:39:54.253Z,45.01
2022-10-05T10:42:50.114Z,46.62
2022-10-05T10:45:29.504Z,45.09
2022-10-05T10:48:11.818Z,44.44
2022-10-05T10:51:05.700Z,43.41
2022-10-05T10:54:07.604Z,42.24
2022-10-05T10:56:49.868Z,44.10
2022-10-05T10:59:57.014Z,46.28
2022-10-05T11:02:48.710Z,43.34
2022-10-05T11:05:32.627Z,44.88
2022-10-05T11:08:34.398Z,46.01
2022-10-05T11:11:43.193Z,44.90
2022-10-05T11:14:38.097Z,43.05
2022-10-05T11:17:26.115Z,41.22
2022-10-05T11:20:09.126Z,44.93
2022-10-05T11:22:52.487Z,47.20
2022-10-05T11:25:44.216Z,49.69
2022-10-05T11:28:44.479Z,45.80
2022-10-05T11:31:37.363Z,45.23
2022-10-05T11:34:38.919Z,44.87
2022-10-05T11:37:45.649Z,46.34
2022-10-05T11:40:43.249Z,46.00
2022-10-05T11:43:38.839Z,45.33
2022-10-05T11:46:15.603Z,44.99
2022-10-05T11:49:06.833Z,44.13
2022-10-05T11:51:46.801Z,43.38
2022-10-05T11:54:58.412Z,43.72
2022-10-05T11:57:32.709Z,41.47
2022-10-05T12:00:12.807Z,44.69
2022-10-05T12:02:55.295Z,45.03
2022-10-05T12:05:29.459Z,47.45
2022-10-05T12:08:16.273Z,43.94
2022-10-05T12:10:52.760Z,43.25
2022-10-05T12:13:30.055Z,43.05
2022-10-05T12:16:03.697Z,42.52
2022-10-05T12:18:47.927Z,42.53
2022-10-05T12:21:28.782Z,40.64
2022-10-05T12:24:06.450Z,42.06
2022-10-05T12:26:40.507Z,42.02
2022-10-05T12:29:18.041Z,41.25
2022-10-05T12:31:56.568Z,43.31
2022-10-05T12:34:37.994Z,42.94
2022-10-05T12:37:19.895Z,42.89
2022-10-05T12:39:54.946Z,43.65
2022-10-05T12:42:32.263Z,44.02
2022-10-05T12:45:19.318Z,44.03
2022-10-05T12:48:16.254Z,44.10
2022-10-05T12:50:56.156Z,44.63
2022-10-05T12:53:37.051Z,45.12
2022-10-05T12:56:12.292Z,44.71
2022-10-05T12:58:57.742Z,44.17
2022-10-05T13:01:34.135Z,44.57
2022-10-05T13:04:14.805Z,47.24
2022-10-05T13:06:52.779Z,45.39
2022-10-05T13:09:29.666Z,46.58
2022-10-05T13:12:09.439Z,46.42
2022-10-05T13:14:53.624Z,46.42
2022-10-05T13:17:32.382Z,46.55
2022-10-05T13:20:21.519Z,48.14
2022-10-05T13:22:57.327Z,49.18
2022-10-05T13:25:33.931Z,47.83
2022-10-05T13:28:19.556Z,48.67
2022-10-05T13:31:02.158Z,47.66
2022-10-05T13:33:48.253Z,47.55
2022-10-05T13:36:29.983Z,49.52
2022-10-05T13:39:05.895Z,48.93
2022-10-05T13:41:45.955Z,48.16
2022-10-05T13:44:24.944Z,47.47
2022-10-05T13:47:02.183Z,48.42
2022-10-05T13:49:39.783Z,48.98
2022-10-05T13:52:26.398Z,49.22
2022-10-05T13:55:02.059Z,48.63
2022-10-05T13:57:45.097Z,48.42
2022-10-05T14:00:22.601Z,47.84
2022-10-05T14:03:01.921Z,50.55
2022-10-05T14:05:31.810Z,47.94
2022-10-05T14:08:17.825Z,50.37
2022-10-05T14:10:53.751Z,49.90
2022-10-05T14:13:26.588Z,50.85
2022-10-05T14:16:18.906Z,55.47
2022-10-05T14:18:56.770Z,59.58
2022-10-05T14:21:27.184Z,61.49
2022-10-05T14:23:57.130Z,61.95
2022-10-05T14:26:36.411Z,64.26
2022-10-05T14:29:18.095Z,64.39
2022-10-05T14:31:54.454Z,65.06
2022-10-05T14:34:36.787Z,66.26
2022-10-05T14:37:18.201Z,67.16
2022-10-05T14:39:48.635Z,66.42
2022-10-05T14:42:21.191Z,65.66
2022-10-05T14:45:00.317Z,66.33
2022-10-05T14:47:50.240Z,66.88
2022-10-05T14:50:29.561Z,66.88
2022-10-05T14:53:10.192Z,68.09
2022-10-05T14:56:02.402Z,67.10
2022-10-05T14:58:56.239Z,66.07
2022-10-05T15:01:28.482Z,66.62
2022-10-05T15:04:09.161Z,67.46
2022-10-05T15:06:40.668Z,67.10
2022-10-05T15:09:42.512Z,67.26
2022-10-05T15:12:14.994Z,68.17
2022-10-05T15:14:47.824Z,69.01
2022-10-05T15:17:27.046Z,70.80
2022-10-05T15:20:05.201Z,71.23
2022-10-05T15:22:42.942Z,71.88
2022-10-05T15:25:17.014Z,73.36
2022-10-05T15:27:58.063Z,73.57
2022-10-05T15:30:26.549Z,73.66
2022-10-05T15:33:08.825Z,74.80
2022-10-05T15:36:02.137Z,72.70
2022-10-05T15:38:36.618Z,73.11
2022-10-05T15:41:12.497Z,73.07
2022-10-05T15:43:52.607Z,73.53
2022-10-05T15:46:34.648Z,73.89
2022-10-05T15:49:24.821Z,74.27
2022-10-05T15:52:05.564Z,74.43
2022-10-05T15:55:02.308Z,74.83
2022-10-05T15:57:43.203Z,74.02
2022-10-05T16:00:18.658Z,74.86
2022-10-05T16:02:52.976Z,75.60
2022-10-05T16:05:50.252Z,75.41
2022-10-05T16:08:54.420Z,76.83
2022-10-05T16:11:40.420Z,77.53
2022-10-05T16:14:34.373Z,78.25
2022-10-05T16:17:20.498Z,79.41
2022-10-05T16:20:00.826Z,80.10
2022-10-05T16:22:43.576Z,81.55
2022-10-05T16:25:22.143Z,81.63
2022-10-05T16:28:08.310Z,81.97
2022-10-05T16:30:52.934Z,82.84
2022-10-05T16:33:29.228Z,84.94
2022-10-05T16:36:18.002Z,84.74
2022-10-05T16:38:54.863Z,86.15
2022-10-05T16:41:38.713Z,86.59
2022-10-05T16:44:23.668Z,88.25
2022-10-05T16:46:58.471Z,89.63
2022-10-05T16:49:40.347Z,89.99
2022-10-05T16:52:19.125Z,89.27
2022-10-05T16:54:53.319Z,89.19
2022-10-05T16:57:36.923Z,89.98
2022-10-05T17:00:20.093Z,89.27
2022-10-05T17:03:16.420Z,88.24
2022-10-05T17:05:59.740Z,88.94
2022-10-05T17:09:02.659Z,88.25
2022-10-05T17:11:43.424Z,89.22
2022-10-05T17:14:31.570Z,89.51
2022-10-05T17:17:27.804Z,89.01
2022-10-05T17:20:06.971Z,88.07
2022-10-05T17:22:40.428Z,87.76
2022-10-05T17:25:18.245Z,87.40
2022-10-05T17:27:54.772Z,87.23
2022-10-05T17:30:48.380Z,86.54
2022-10-05T17:33:23.206Z,86.52
2022-10-05T17:36:18.457Z,86.16
2022-10-05T17:38:50.267Z,85.63
2022-10-05T17:41:22.086Z,85.29
2022-10-05T17:44:20.450Z,86.13
2022-10-05T17:46:51.385Z,85.75
2022-10-05T17:49:39.748Z,85.98
2022-10-05T17:52:44.025Z,85.88
2022-10-05T17:55:38.252Z,85.80
2022-10-05T17:58:40.863Z,86.07
2022-10-05T18:01:16.953Z,85.90
2022-10-05T18:03:49.880Z,86.57
2022-10-05T18:06:44.577Z,85.84
2022-10-05T18:09:20.835Z,85.57
2022-10-05T18:12:25.513Z,86.13
2022-10-05T18:15:00.958Z,85.92
2022-10-05T18:17:39.841Z,85.61
2022-10-05T18:20:17.962Z,86.14
2022-10-05T18:22:47.241Z,84.97
2022-10-05T18:25:30.090Z,85.14
2022-10-05T18:28:13.670Z,84.80
2022-10-05T18:31:04.491Z,85.27
2022-10-05T18:33:55.691Z,86.72
2022-10-05T18:36:42.898Z,86.49
2022-10-05T18:39:22.397Z,86.28
2022-10-05T18:42:02.595Z,86.61
2022-10-05T18:44:40.380Z,87.23
2022-10-05T18:47:16.356Z,86.79
2022-10-05T18:49:58.293Z,87.10
2022-10-05T18:52:46.051Z,87.55
2022-10-05T18:55:20.039Z,87.25
2022-10-05T18:58:21.254Z,87.48
2022-10-05T19:01:04.280Z,88.07
2022-10-05T19:03:42.302Z,87.50
2022-10-05T19:06:23.140Z,87.12
2022-10-05T19:09:04.447Z,87.18
2022-10-05T19:11:40.812Z,86.93
2022-10-05T19:14:21.998Z,86.88
2022-10-05T19:17:01.262Z,87.34
2022-10-05T19:19:43.856Z,87.01
2022-10-05T19:22:20.128Z,87.00
2022-10-05T19:25:05.234Z,87.06
2022-10-05T19:27:46.417Z,87.23
2022-10-05T19:30:27.154Z,88.10
2022-10-05T19:33:24.029Z,88.34
2022-10-05T19:36:03.811Z,88.25
2022-10-05T19:38:42.310Z,88.34
2022-10-05T19:41:17.201Z,87.81
2022-10-05T19:44:03.421Z,88.30
2022-10-05T19:46:47.895Z,88.21
2022-10-05T19:49:37.193Z,88.46
2022-10-05T19:52:13.070Z,88.39
2022-10-05T19:54:43.339Z,88.58
2022-10-05T19:57:18.065Z,88.93
2022-10-05T19:59:47.661Z,88.97
2022-10-05T20:02:17.697Z,89.42
2022-10-05T20:04:49.344Z,89.31
2022-10-05T20:07:21.611Z,90.31
2022-10-05T20:09:53.323Z,90.51
2022-10-05T20:12:23.606Z,91.43
2022-10-05T20:15:26.948Z,91.70
2022-10-05T20:18:12.774Z,92.37
2022-10-05T20:20:45.731Z,93.50
2022-10-05T20:23:24.954Z,93.69
2022-10-05T20:26:10.730Z,94.29
2022-10-05T20:28:40.511Z,94.91
2022-10-05T20:31:09.342Z,95.12
2022-10-05T20:33:38.893Z,95.57
2022-10-05T20:36:08.575Z,95.62
2022-10-05T20:38:40.904Z,95.90
2022-10-05T20:41:10.218Z,96.05
2022-10-05T20:43:40.390Z,95.93
2022-10-05T20:46:08.735Z,95.75
2022-10-05T20:48:37.089Z,96.72
2022-10-05T20:51:05.793Z,97.52
2022-10-05T20:53:34.516Z,97.75
2022-10-05T20:56:04.790Z,97.57
2022-10-05T20:58:33.151Z,97.66
2022-10-05T21:01:25.593Z,97.99
2022-10-05T21:03:54.566Z,99.08
2022-10-05T21:06:26.219Z,100.00
2022-10-05T21:08:54.905Z,100.00
2022-10-05T21:11:23.375Z,100.00
2022-10-05T21:13:53.661Z,100.00
2022-10-05T21:16:24.724Z,100.00
2022-10-05T21:18:53.557Z,100.00
2022-10-05T21:21:21.904Z,100.00
2022-10-05T21:23:51.137Z,100.00
2022-10-05T21:26:19.527Z,100.00
2022-10-05T21:28:47.952Z,100.00
2022-10-05T21:31:16.431Z,100.00
2022-10-05T21:33:46.185Z,100.00
2022-10-05T21:36:14.987Z,100.00
2022-10-05T21:38:43.555Z,100.00
2022-10-05T21:41:11.890Z,100.00
2022-10-05T21:43:40.481Z,100.00
2022-10-05T21:46:09.693Z,100.00
2022-10-05T21:48:40.467Z,100.00
2022-10-05T21:51:13.338Z,100.00
2022-10-05T21:53:47.074Z,100.00
2022-10-05T21:56:18.866Z,100.00
2022-10-05T21:58:48.256Z,100.00
2022-10-05T22:01:22.365Z,100.00
2022-10-05T22:03:51.068Z,100.00
2022-10-05T22:06:20.953Z,100.00
2022-10-05T22:08:49.322Z,100.00
2022-10-05T22:11:19.259Z,100.00
2022-10-05T22:13:49.920Z,100.00
2022-10-05T22:16:21.654Z,100.00
2022-10-05T22:18:50.737Z,100.00
2022-10-05T22:21:21.017Z,100.00
2022-10-05T22:23:50.786Z,100.00
2022-10-05T22:26:22.097Z,100.00
2022-10-05T22:28:54.929Z,100.00
2022-10-05T22:31:23.936Z,100.00
2022-10-05T22:33:52.633Z,100.00
2022-10-05T22:36:21.720Z,100.00
2022-10-05T22:38:51.490Z,100.00
2022-10-05T22:41:20.455Z,100.00
2022-10-05T22:43:50.665Z,100.00
2022-10-05T22:46:20.146Z,100.00
2022-10-05T22:48:48.548Z,100.00
2022-10-05T22:51:17.018Z,100.00
2022-10-05T22:53:45.364Z,100.00
2022-10-05T22:56:15.257Z,100.00
2022-10-05T22:58:44.565Z,100.00
2022-10-05T23:01:15.271Z,100.00
2022-10-05T23:03:44.698Z,100.00
2022-10-05T23:06:15.000Z,100.00
2022-10-05T23:08:43.875Z,100.00
2022-10-05T23:11:14.346Z,100.00
2022-10-05T23:13:44.421Z,100.00
2022-10-05T23:16:14.701Z,100.00
2022-10-05T23:18:43.768Z,100.00
2022-10-05T23:21:12.618Z,100.00
2022-10-05T23:23:43.249Z,100.00
2022-10-05T23:26:12.572Z,100.00
2022-10-05T23:28:43.092Z,100.00
2022-10-05T23:31:14.548Z,100.00
2022-10-05T23:33:42.996Z,100.00
2022-10-05T23:36:14.488Z,100.00
2022-10-05T23:38:43.517Z,100.00
2022-10-05T23:41:12.234Z,100.00
2022-10-05T23:43:40.991Z,100.00
2022-10-05T23:46:10.523Z,100.00
2022-10-05T23:48:40.688Z,100.00
2022-10-05T23:51:11.073Z,100.00
2022-10-05T23:53:39.453Z,100.00
2022-10-05T23:56:08.063Z,100.00
2022-10-05T23:58:36.469Z,100.00
